Terminal Aerodrome Forecast
Issued by NWS Paducah, KY

Home | Current Version | Previous Version | Text Only | Print | Product List | Glossary On
Versions: 1 2 3 4 5 6 7 8 9 10 11 12 13 14 15 16 17 18
663
FTUS43 KPAH 292327
TAFPAH
TAF
KPAH 292327Z 3000/3024 33009KT P6SM VCSH SCT030 OVC050
     FM300200 33003KT P6SM SKC
     FM300830 32002KT P6SM SCT030 BKN080
      TEMPO 3012/3014 5SM BR
     FM301500 30003KT P6SM VCSH BKN035 OVC070=

USA.gov is the U.S. government's official web portal to all federal, state and local government web resources and services.